createdAt,value
2018-06-12T00:00:34.519Z,15.35
2018-06-12T00:05:08.886Z,14.80
2018-06-12T00:09:43.158Z,16.15
2018-06-12T00:14:17.641Z,16.75
2018-06-12T00:18:52.126Z,18.05
2018-06-12T00:23:26.529Z,19.32
2018-06-12T00:28:01.001Z,19.32
2018-06-12T00:32:35.373Z,16.75
2018-06-12T00:37:09.989Z,15.83
2018-06-12T00:41:44.450Z,16.35
2018-06-12T00:46:18.841Z,16.00
2018-06-12T00:50:53.205Z,17.17
2018-06-12T00:55:27.785Z,16.42
2018-06-12T01:00:02.038Z,19.30
2018-06-12T01:04:36.537Z,18.23
2018-06-12T01:09:10.741Z,18.82
2018-06-12T01:13:44.977Z,20.85
2018-06-12T01:18:19.297Z,18.57
2018-06-12T01:22:53.637Z,18.23
2018-06-12T01:27:27.980Z,18.60
2018-06-12T01:32:02.766Z,17.20
2018-06-12T01:36:36.961Z,17.65
2018-06-12T01:41:11.282Z,18.12
2018-06-12T01:45:45.706Z,17.48
2018-06-12T01:50:19.942Z,18.65
2018-06-12T01:54:54.341Z,18.95
2018-06-12T01:59:28.811Z,20.48
2018-06-12T02:04:03.381Z,20.70
2018-06-12T02:08:37.590Z,21.65
2018-06-12T02:13:12.213Z,21.60
2018-06-12T02:17:46.754Z,22.42
2018-06-12T02:22:21.178Z,23.40
2018-06-12T02:26:55.538Z,21.40
2018-06-12T02:31:30.308Z,20.80
2018-06-12T02:36:04.600Z,21.25
2018-06-12T02:40:38.889Z,21.68
2018-06-12T02:45:13.458Z,18.77
2018-06-12T02:49:48.376Z,20.00
2018-06-12T02:54:22.469Z,20.75
2018-06-12T02:58:56.670Z,21.65
2018-06-12T03:03:31.160Z,23.92
2018-06-12T03:08:05.613Z,23.02
2018-06-12T03:12:40.082Z,23.95
2018-06-12T03:17:14.691Z,31.10
2018-06-12T03:21:49.436Z,26.25
2018-06-12T03:26:23.645Z,23.75
2018-06-12T03:30:58.126Z,23.87
2018-06-12T03:35:32.838Z,21.30
2018-06-12T03:40:07.326Z,22.52
2018-06-12T03:44:41.545Z,19.55
2018-06-12T03:49:15.982Z,21.17
2018-06-12T03:53:50.425Z,20.88
2018-06-12T03:58:25.073Z,18.57
2018-06-12T04:02:59.628Z,17.70
2018-06-12T04:07:34.078Z,17.60
2018-06-12T04:12:09.147Z,18.77
2018-06-12T04:16:43.593Z,17.85
2018-06-12T04:21:18.066Z,17.17
2018-06-12T04:25:52.480Z,17.48
2018-06-12T04:30:26.951Z,15.32
2018-06-12T04:35:01.199Z,13.43
2018-06-12T04:39:35.669Z,12.85
2018-06-12T04:44:09.973Z,13.05
2018-06-12T04:48:44.921Z,13.25
2018-06-12T04:53:19.224Z,13.50
2018-06-12T04:57:54.460Z,12.68
2018-06-12T05:02:29.001Z,11.93
2018-06-12T05:07:03.287Z,12.68
2018-06-12T05:11:37.765Z,13.08
2018-06-12T05:16:12.202Z,12.65
2018-06-12T05:20:46.577Z,14.63
2018-06-12T05:25:21.183Z,13.45
2018-06-12T05:29:55.425Z,15.48
2018-06-12T05:34:29.906Z,15.83
2018-06-12T05:39:07.414Z,16.30
2018-06-12T05:43:42.389Z,15.32
2018-06-12T05:48:16.634Z,14.95
2018-06-12T05:52:51.153Z,15.83
2018-06-12T05:57:26.162Z,16.05
2018-06-12T06:02:00.045Z,14.60
2018-06-12T06:06:34.771Z,14.58
2018-06-12T06:11:09.317Z,13.40
2018-06-12T06:15:43.795Z,9.60
2018-06-12T06:20:18.118Z,8.75
2018-06-12T06:24:52.172Z,8.65
2018-06-12T06:29:26.530Z,7.10
2018-06-12T06:34:01.666Z,6.65
2018-06-12T06:38:36.407Z,5.87
2018-06-12T06:43:10.933Z,5.10
2018-06-12T06:47:45.398Z,4.42
2018-06-12T06:52:19.749Z,5.37
2018-06-12T06:56:54.869Z,4.85
2018-06-12T07:01:31.735Z,5.17
2018-06-12T07:06:06.153Z,4.15
2018-06-12T07:10:41.567Z,3.98
2018-06-12T07:15:15.930Z,4.65
2018-06-12T07:19:50.950Z,4.83
2018-06-12T07:24:25.374Z,4.72
2018-06-12T07:28:59.708Z,5.03
2018-06-12T07:33:34.230Z,5.62
2018-06-12T07:38:08.732Z,5.20
2018-06-12T07:42:43.465Z,7.65
2018-06-12T07:47:18.062Z,8.28
2018-06-12T07:51:52.488Z,8.38
2018-06-12T07:56:26.734Z,8.68
2018-06-12T08:01:01.178Z,8.73
2018-06-12T08:05:35.766Z,8.98
2018-06-12T08:10:10.136Z,8.58
2018-06-12T08:14:44.799Z,8.48
2018-06-12T08:19:19.428Z,7.30
2018-06-12T08:23:53.859Z,6.97
2018-06-12T08:28:28.672Z,6.60
2018-06-12T08:33:02.848Z,6.28
2018-06-12T08:37:37.265Z,6.90
2018-06-12T08:42:11.741Z,5.85
2018-06-12T08:46:46.299Z,5.05
2018-06-12T08:51:20.556Z,5.60
2018-06-12T08:55:54.903Z,5.70
2018-06-12T09:00:29.346Z,6.05
2018-06-12T09:05:03.653Z,5.30
2018-06-12T09:09:38.014Z,5.75
2018-06-12T09:14:13.049Z,6.97
2018-06-12T09:18:47.221Z,7.20
2018-06-12T09:23:21.629Z,8.00
2018-06-12T09:27:55.958Z,8.08
2018-06-12T09:32:30.378Z,6.58
2018-06-12T09:37:04.933Z,7.40
2018-06-12T09:41:39.190Z,6.80
2018-06-12T09:46:13.575Z,7.40
2018-06-12T09:50:47.930Z,7.05
2018-06-12T09:55:22.494Z,5.60
2018-06-12T09:59:56.802Z,5.90
2018-06-12T10:04:31.325Z,5.15
2018-06-12T10:09:07.597Z,5.10
2018-06-12T10:13:42.837Z,4.08
2018-06-12T10:18:17.238Z,4.20
2018-06-12T10:22:51.762Z,3.90
2018-06-12T10:27:26.170Z,3.62
2018-06-12T10:32:00.514Z,3.60
2018-06-12T10:36:35.034Z,3.95
2018-06-12T10:41:09.566Z,3.58
2018-06-12T10:45:44.041Z,3.65
2018-06-12T10:50:18.581Z,3.10
2018-06-12T10:54:52.993Z,3.25
2018-06-12T10:59:27.505Z,7.08
2018-06-12T11:04:01.971Z,2.80
2018-06-12T11:08:36.349Z,3.25
2018-06-12T11:13:10.705Z,3.33
2018-06-12T11:17:45.311Z,3.20
2018-06-12T11:22:19.771Z,3.70
2018-06-12T11:26:54.228Z,2.80
2018-06-12T11:31:29.072Z,3.12
2018-06-12T11:36:03.273Z,3.47
2018-06-12T11:40:37.920Z,3.17
2018-06-12T11:45:12.316Z,2.70
2018-06-12T11:49:47.081Z,3.15
2018-06-12T11:54:21.585Z,3.58
2018-06-12T11:58:55.995Z,3.62
2018-06-12T12:03:30.377Z,2.85
2018-06-12T12:08:04.761Z,3.33
2018-06-12T12:12:39.812Z,3.22
2018-06-12T12:17:14.599Z,2.90
2018-06-12T12:21:48.996Z,2.90
2018-06-12T12:26:23.650Z,2.95
2018-06-12T12:30:58.083Z,2.67
2018-06-12T12:35:32.554Z,2.60
2018-06-12T12:40:06.822Z,3.10
2018-06-12T12:44:41.061Z,2.77
2018-06-12T12:49:15.499Z,2.90
2018-06-12T12:53:50.333Z,3.12
2018-06-12T12:58:24.841Z,3.60
2018-06-12T13:02:59.230Z,3.95
2018-06-12T13:07:33.867Z,4.35
2018-06-12T13:12:09.410Z,4.12
2018-06-12T13:16:43.962Z,4.85
2018-06-12T13:21:18.494Z,6.00
2018-06-12T13:25:52.846Z,5.20
2018-06-12T13:30:27.482Z,4.45
2018-06-12T13:35:01.912Z,4.67
2018-06-12T13:39:36.186Z,5.42
2018-06-12T13:44:10.683Z,5.17
2018-06-12T13:48:45.134Z,5.10
2018-06-12T13:53:19.339Z,6.87
2018-06-12T13:57:53.650Z,7.08
2018-06-12T14:02:27.942Z,6.90
2018-06-12T14:07:02.189Z,7.33
2018-06-12T14:11:36.580Z,8.58
2018-06-12T14:16:11.445Z,9.83
2018-06-12T14:20:45.690Z,9.33
2018-06-12T14:25:19.958Z,9.65
2018-06-12T14:29:54.201Z,9.78
2018-06-12T14:34:28.603Z,9.08
2018-06-12T14:39:02.966Z,10.80
2018-06-12T14:43:37.383Z,10.43
2018-06-12T14:48:11.652Z,11.73
2018-06-12T14:52:45.943Z,11.50
2018-06-12T14:57:20.211Z,10.03
2018-06-12T15:01:54.786Z,11.35
2018-06-12T15:06:29.170Z,11.88
2018-06-12T15:11:03.556Z,11.30
2018-06-12T15:15:37.969Z,12.53
2018-06-12T15:20:12.552Z,12.65
2018-06-12T15:24:46.905Z,12.55
2018-06-12T15:29:21.255Z,12.20
2018-06-12T15:33:55.982Z,12.13
2018-06-12T15:38:30.763Z,12.25
2018-06-12T15:43:05.273Z,13.48
2018-06-12T15:47:39.625Z,13.43
2018-06-12T15:52:14.251Z,11.20
2018-06-12T15:56:48.795Z,12.05
2018-06-12T16:01:23.345Z,12.23
2018-06-12T16:05:57.938Z,12.23
2018-06-12T16:10:32.293Z,12.58
2018-06-12T16:15:07.290Z,14.28
2018-06-12T16:19:41.878Z,13.80
2018-06-12T16:24:16.242Z,12.90
2018-06-12T16:28:50.977Z,13.05
2018-06-12T16:33:25.513Z,11.70
2018-06-12T16:38:00.007Z,11.57
2018-06-12T16:42:34.386Z,10.13
2018-06-12T16:47:08.710Z,11.70
2018-06-12T16:51:43.130Z,11.35
2018-06-12T16:56:17.495Z,14.60
2018-06-12T17:00:51.718Z,11.18
2018-06-12T17:05:26.167Z,11.55
2018-06-12T17:10:01.086Z,10.38
2018-06-12T17:14:35.499Z,10.43
2018-06-12T17:19:09.917Z,8.78
2018-06-12T17:23:44.285Z,8.28
2018-06-12T17:28:18.629Z,10.30
2018-06-12T17:32:52.911Z,8.45
2018-06-12T17:37:26.772Z,8.80
2018-06-12T17:42:01.007Z,8.95
2018-06-12T17:46:35.461Z,9.03
2018-06-12T17:51:09.961Z,8.08
2018-06-12T17:55:44.314Z,9.25
2018-06-12T18:00:18.510Z,8.58
2018-06-12T18:04:52.812Z,9.08
2018-06-12T18:09:27.254Z,8.48
2018-06-12T18:14:01.935Z,8.10
2018-06-12T18:18:36.161Z,9.00
2018-06-12T18:23:11.613Z,9.65
2018-06-12T18:27:45.942Z,8.90
2018-06-12T18:32:20.198Z,9.05
2018-06-12T18:36:54.502Z,8.80
2018-06-12T18:41:28.770Z,9.10
2018-06-12T18:46:03.154Z,9.93
2018-06-12T18:50:37.353Z,10.00
2018-06-12T18:55:11.766Z,10.85
2018-06-12T18:59:46.010Z,11.03
2018-06-12T19:04:20.402Z,11.43
2018-06-12T19:08:54.726Z,9.98
2018-06-12T19:13:28.958Z,10.48
2018-06-12T19:18:03.382Z,10.48
2018-06-12T19:22:37.880Z,10.70
2018-06-12T19:27:12.173Z,9.58
2018-06-12T19:31:46.795Z,9.65
2018-06-12T19:36:21.046Z,9.30
2018-06-12T19:40:55.539Z,9.38
2018-06-12T19:45:29.966Z,9.10
2018-06-12T19:50:07.689Z,9.18
2018-06-12T19:54:42.383Z,8.70
2018-06-12T19:59:16.875Z,8.83
2018-06-12T20:03:51.065Z,8.38
2018-06-12T20:08:25.865Z,7.83
2018-06-12T20:13:00.657Z,7.83
2018-06-12T20:17:36.165Z,7.83
2018-06-12T20:22:11.319Z,7.83
2018-06-12T20:26:45.639Z,8.10
2018-06-12T20:31:19.995Z,7.47
2018-06-12T20:35:55.306Z,8.05
2018-06-12T20:40:29.797Z,8.18
2018-06-12T20:45:04.240Z,8.00
2018-06-12T20:49:38.594Z,7.92
2018-06-12T20:54:13.149Z,8.43
2018-06-12T20:58:47.546Z,9.20
2018-06-12T21:03:22.087Z,8.85
2018-06-12T21:07:56.421Z,9.90
2018-06-12T21:12:30.862Z,9.30
2018-06-12T21:17:05.248Z,9.98
2018-06-12T21:21:40.091Z,9.85
2018-06-12T21:26:14.506Z,11.45
2018-06-12T21:30:49.411Z,12.45
2018-06-12T21:35:23.745Z,12.43
2018-06-12T21:39:57.986Z,14.47
2018-06-12T21:44:32.313Z,15.13
2018-06-12T21:49:06.551Z,15.35
2018-06-12T21:53:40.906Z,16.35
2018-06-12T21:58:15.326Z,18.20
2018-06-12T22:02:49.723Z,18.17
2018-06-12T22:07:24.230Z,19.60
2018-06-12T22:11:58.714Z,19.40
2018-06-12T22:16:33.057Z,19.25
2018-06-12T22:21:07.509Z,20.65
2018-06-12T22:25:42.022Z,20.15
2018-06-12T22:30:16.378Z,21.52
2018-06-12T22:34:50.897Z,22.13
2018-06-12T22:39:25.273Z,20.97
2018-06-12T22:43:59.657Z,21.20
2018-06-12T22:48:33.910Z,22.80
2018-06-12T22:53:08.357Z,21.75
2018-06-12T22:57:42.779Z,23.30
2018-06-12T23:02:17.403Z,22.98
2018-06-12T23:06:51.902Z,24.65
2018-06-12T23:11:26.141Z,24.27
2018-06-12T23:16:00.327Z,24.57
2018-06-12T23:20:52.035Z,24.12
2018-06-12T23:25:26.421Z,23.25
2018-06-12T23:30:00.916Z,22.93
2018-06-12T23:34:35.386Z,23.77
2018-06-12T23:39:10.452Z,25.35
2018-06-12T23:43:44.757Z,24.87
2018-06-12T23:48:19.555Z,23.40
2018-06-12T23:52:54.413Z,24.98
2018-06-12T23:57:28.676Z,25.15
